createdAt,value
2023-12-14T00:00:10.070Z,5.34
2023-12-14T00:03:32.916Z,5.34
2023-12-14T00:06:35.858Z,5.31
2023-12-14T00:09:38.789Z,5.32
2023-12-14T00:12:41.810Z,5.36
2023-12-14T00:15:46.111Z,5.37
2023-12-14T00:18:49.164Z,5.36
2023-12-14T00:21:52.263Z,5.38
2023-12-14T00:24:55.236Z,5.37
2023-12-14T00:27:58.208Z,5.34
2023-12-14T00:31:01.377Z,5.32
2023-12-14T00:34:04.638Z,5.32
2023-12-14T00:37:07.609Z,5.34
2023-12-14T00:40:10.911Z,5.35
2023-12-14T00:43:14.109Z,5.33
2023-12-14T00:46:17.070Z,5.29
2023-12-14T00:49:20.955Z,5.26
2023-12-14T00:52:23.930Z,5.26
2023-12-14T00:55:26.895Z,5.28
2023-12-14T00:58:32.437Z,5.26
2023-12-14T01:01:36.088Z,5.24
2023-12-14T01:04:39.270Z,5.30
2023-12-14T01:07:42.285Z,5.30
2023-12-14T01:10:45.476Z,5.29
2023-12-14T01:13:48.753Z,5.29
2023-12-14T01:16:51.849Z,5.29
2023-12-14T01:19:54.890Z,5.29
2023-12-14T01:22:57.880Z,5.28
2023-12-14T01:26:00.891Z,5.26
2023-12-14T01:29:04.211Z,5.25
2023-12-14T01:32:07.632Z,5.26
2023-12-14T01:35:10.882Z,5.29
2023-12-14T01:38:13.864Z,5.28
2023-12-14T01:41:18.290Z,5.24
2023-12-14T01:44:21.321Z,5.22
2023-12-14T01:47:24.296Z,5.21
2023-12-14T01:50:27.269Z,5.21
2023-12-14T01:53:30.436Z,5.20
2023-12-14T01:56:33.415Z,5.17
2023-12-14T01:59:36.383Z,5.17
2023-12-14T02:02:41.388Z,5.19
2023-12-14T02:05:44.454Z,5.20
2023-12-14T02:08:47.470Z,5.16
2023-12-14T02:11:50.524Z,5.15
2023-12-14T02:14:53.609Z,5.17
2023-12-14T02:17:56.804Z,5.12
2023-12-14T02:20:59.763Z,5.09
2023-12-14T02:24:02.727Z,5.05
2023-12-14T02:27:06.206Z,5.02
2023-12-14T02:30:09.395Z,5.00
2023-12-14T02:33:12.259Z,4.99
2023-12-14T02:36:15.249Z,4.98
2023-12-14T02:39:18.300Z,4.96
2023-12-14T02:42:21.239Z,4.93
2023-12-14T02:45:24.145Z,4.88
2023-12-14T02:48:27.176Z,4.86
2023-12-14T02:51:30.080Z,4.86
2023-12-14T02:54:33.169Z,4.83
2023-12-14T02:57:36.123Z,4.78
2023-12-14T03:00:39.166Z,4.79
2023-12-14T03:03:42.208Z,4.81
2023-12-14T03:06:45.458Z,4.83
2023-12-14T03:09:48.429Z,4.83
2023-12-14T03:12:51.303Z,4.87
2023-12-14T03:15:54.156Z,4.88
2023-12-14T03:18:58.099Z,4.88
2023-12-14T03:22:01.027Z,4.87
2023-12-14T03:25:05.020Z,4.83
2023-12-14T03:28:07.891Z,4.79
2023-12-14T03:31:13.086Z,4.78
2023-12-14T03:34:16.095Z,4.76
2023-12-14T03:37:19.070Z,4.74
2023-12-14T03:40:21.933Z,4.69
2023-12-14T03:43:25.004Z,4.67
2023-12-14T03:46:27.976Z,4.66
2023-12-14T03:49:30.995Z,4.68
2023-12-14T03:52:34.274Z,4.68
2023-12-14T03:55:37.430Z,4.66
2023-12-14T03:58:40.413Z,4.64
2023-12-14T04:01:43.509Z,4.64
2023-12-14T04:04:48.722Z,4.65
2023-12-14T04:07:51.777Z,4.62
2023-12-14T04:10:54.796Z,4.61
2023-12-14T04:13:57.862Z,4.58
2023-12-14T04:17:00.812Z,4.59
2023-12-14T04:20:04.286Z,4.57
2023-12-14T04:23:07.901Z,4.53
2023-12-14T04:26:11.548Z,4.50
2023-12-14T04:29:14.508Z,4.50
2023-12-14T04:32:17.523Z,4.42
2023-12-14T04:35:20.550Z,4.40
2023-12-14T04:38:23.525Z,4.41
2023-12-14T04:41:26.469Z,4.41
2023-12-14T04:44:29.594Z,4.43
2023-12-14T04:47:32.668Z,4.45
2023-12-14T04:50:35.614Z,4.42
2023-12-14T04:53:38.995Z,4.40
2023-12-14T04:56:42.926Z,4.40
2023-12-14T04:59:45.980Z,4.44
2023-12-14T05:02:49.974Z,4.46
2023-12-14T05:05:53.114Z,4.48
2023-12-14T05:08:56.828Z,4.48
2023-12-14T05:11:59.801Z,4.48
2023-12-14T05:15:02.978Z,4.48
2023-12-14T05:18:05.994Z,4.48
2023-12-14T05:21:09.022Z,4.48
2023-12-14T05:24:11.895Z,4.47
2023-12-14T05:27:15.786Z,4.47
2023-12-14T05:30:19.446Z,4.44
2023-12-14T05:33:22.687Z,4.42
2023-12-14T05:36:25.725Z,4.44
2023-12-14T05:39:28.596Z,4.44
2023-12-14T05:42:31.626Z,4.46
2023-12-14T05:45:34.644Z,4.45
2023-12-14T05:48:38.819Z,4.50
2023-12-14T05:51:41.811Z,4.51
2023-12-14T05:54:44.988Z,4.52
2023-12-14T05:57:48.991Z,4.53
2023-12-14T06:00:51.901Z,4.54
2023-12-14T06:03:54.981Z,4.53
2023-12-14T06:06:58.209Z,4.51
2023-12-14T06:10:02.355Z,4.48
2023-12-14T06:13:05.276Z,4.45
2023-12-14T06:16:14.133Z,4.42
2023-12-14T06:19:18.823Z,4.42
2023-12-14T06:22:21.877Z,4.41
2023-12-14T06:25:24.845Z,4.41
2023-12-14T06:28:27.817Z,4.42
2023-12-14T06:31:30.785Z,4.45
2023-12-14T06:34:33.706Z,4.44
2023-12-14T06:37:37.100Z,4.43
2023-12-14T06:40:40.130Z,4.43
2023-12-14T06:43:43.138Z,4.44
2023-12-14T06:46:46.147Z,4.43
2023-12-14T06:49:49.589Z,4.43
2023-12-14T06:52:52.761Z,4.41
2023-12-14T06:55:55.718Z,4.40
2023-12-14T06:58:58.782Z,4.39
2023-12-14T07:02:01.713Z,4.37
2023-12-14T07:05:05.143Z,4.33
2023-12-14T07:08:08.364Z,4.35
2023-12-14T07:11:11.967Z,4.35
2023-12-14T07:14:16.436Z,4.38
2023-12-14T07:17:20.210Z,4.41
2023-12-14T07:20:23.425Z,4.45
2023-12-14T07:23:26.443Z,4.49
2023-12-14T07:26:29.591Z,4.50
2023-12-14T07:29:32.583Z,4.52
2023-12-14T07:32:36.066Z,4.54
2023-12-14T07:35:39.352Z,4.54
2023-12-14T07:38:42.315Z,4.52
2023-12-14T07:41:45.388Z,4.47
2023-12-14T07:44:48.365Z,4.46
2023-12-14T07:47:51.425Z,4.43
2023-12-14T07:50:55.373Z,4.39
2023-12-14T07:53:58.200Z,4.38
2023-12-14T07:57:01.275Z,4.39
2023-12-14T08:00:05.376Z,4.38
2023-12-14T08:03:08.268Z,4.37
2023-12-14T08:06:12.979Z,4.34
2023-12-14T08:09:16.755Z,4.32
2023-12-14T08:12:19.723Z,4.33
2023-12-14T08:15:22.585Z,4.33
2023-12-14T08:18:25.644Z,4.34
2023-12-14T08:21:28.734Z,4.35
2023-12-14T08:24:31.705Z,4.34
2023-12-14T08:27:34.786Z,4.33
2023-12-14T08:30:39.437Z,4.31
2023-12-14T08:33:46.436Z,4.28
2023-12-14T08:36:51.270Z,4.25
2023-12-14T08:39:56.197Z,4.25
2023-12-14T08:42:59.578Z,4.24
2023-12-14T08:46:02.560Z,4.25
2023-12-14T08:49:05.564Z,4.25
2023-12-14T08:52:08.998Z,4.24
2023-12-14T08:55:11.978Z,4.23
2023-12-14T08:58:15.152Z,4.23
2023-12-14T09:01:22.620Z,4.24
2023-12-14T09:04:25.863Z,4.19
2023-12-14T09:07:28.651Z,4.17
2023-12-14T09:10:31.939Z,4.16
2023-12-14T09:13:35.051Z,4.12
2023-12-14T09:16:39.041Z,4.12
2023-12-14T09:19:42.140Z,4.12
2023-12-14T09:22:45.070Z,4.08
2023-12-14T09:25:48.415Z,4.09
2023-12-14T09:28:51.592Z,4.09
2023-12-14T09:31:54.602Z,4.08
2023-12-14T09:34:58.108Z,4.08
2023-12-14T09:38:01.097Z,4.09
2023-12-14T09:41:04.382Z,4.08
2023-12-14T09:44:08.528Z,4.06
2023-12-14T09:47:11.770Z,4.02
2023-12-14T09:50:16.326Z,3.96
2023-12-14T09:53:19.921Z,3.92
2023-12-14T09:56:23.018Z,3.92
2023-12-14T09:59:26.053Z,3.94
2023-12-14T10:02:29.325Z,3.98
2023-12-14T10:05:32.433Z,4.00
2023-12-14T10:08:35.336Z,4.02
2023-12-14T10:11:38.275Z,4.04
2023-12-14T10:14:41.210Z,4.03
2023-12-14T10:17:44.178Z,3.99
2023-12-14T10:20:48.308Z,3.98
2023-12-14T10:23:51.236Z,3.96
2023-12-14T10:26:54.065Z,3.91
2023-12-14T10:29:57.457Z,3.86
2023-12-14T10:33:00.397Z,3.88
2023-12-14T10:36:09.989Z,3.88
2023-12-14T10:39:16.971Z,3.86
2023-12-14T10:42:22.541Z,3.89
2023-12-14T10:45:28.856Z,3.90
2023-12-14T10:48:33.083Z,3.88
2023-12-14T10:51:38.485Z,3.88
2023-12-14T10:54:42.640Z,3.87
2023-12-14T10:57:47.599Z,3.89
2023-12-14T11:01:02.819Z,3.90
2023-12-14T11:04:07.320Z,3.90
2023-12-14T11:07:12.077Z,3.87
2023-12-14T11:10:15.550Z,3.84
2023-12-14T11:13:19.128Z,3.84
2023-12-14T11:16:27.596Z,3.86
2023-12-14T11:19:31.576Z,3.85
2023-12-14T11:22:34.617Z,3.87
2023-12-14T11:25:44.778Z,3.88
2023-12-14T11:28:50.943Z,3.89
2023-12-14T11:31:53.938Z,3.90
2023-12-14T11:34:56.874Z,3.92
2023-12-14T11:38:01.460Z,3.90
2023-12-14T11:41:04.637Z,3.91
2023-12-14T11:44:08.398Z,3.89
2023-12-14T11:47:11.403Z,3.91
2023-12-14T11:50:15.488Z,3.88
2023-12-14T11:53:19.248Z,3.87
2023-12-14T11:56:24.442Z,3.88
2023-12-14T11:59:27.612Z,3.85
2023-12-14T12:02:30.516Z,3.78
2023-12-14T12:05:37.350Z,3.80
2023-12-14T12:08:43.980Z,3.76
2023-12-14T12:11:47.185Z,3.71
2023-12-14T12:14:53.853Z,3.73
2023-12-14T12:17:56.879Z,3.66
2023-12-14T12:21:05.333Z,3.57
2023-12-14T12:24:18.539Z,3.57
2023-12-14T12:27:29.570Z,3.59
2023-12-14T12:30:32.587Z,3.59
2023-12-14T12:33:39.395Z,3.61
2023-12-14T12:36:43.090Z,3.64
2023-12-14T12:39:45.869Z,3.64
2023-12-14T12:42:49.715Z,3.64
2023-12-14T12:45:52.635Z,3.66
2023-12-14T12:48:55.644Z,3.72
2023-12-14T12:51:58.608Z,3.77
2023-12-14T12:55:01.603Z,3.80
2023-12-14T12:58:08.181Z,3.76
2023-12-14T13:01:11.042Z,3.75
2023-12-14T13:04:21.132Z,3.70
2023-12-14T13:07:24.211Z,3.63
2023-12-14T13:10:31.918Z,3.60
2023-12-14T13:13:35.892Z,3.60
2023-12-14T13:16:39.454Z,3.59
2023-12-14T13:19:42.467Z,3.54
2023-12-14T13:22:45.363Z,3.50
2023-12-14T13:25:48.365Z,3.46
2023-12-14T13:28:52.161Z,3.41
2023-12-14T13:31:55.149Z,3.35
2023-12-14T13:34:57.933Z,3.34
2023-12-14T13:38:01.175Z,3.35
2023-12-14T13:41:04.457Z,3.34
2023-12-14T13:44:07.491Z,3.31
2023-12-14T13:47:10.404Z,3.33
2023-12-14T13:50:13.479Z,3.31
2023-12-14T13:53:17.845Z,3.34
2023-12-14T13:56:21.861Z,3.27
2023-12-14T13:59:25.003Z,3.27
2023-12-14T14:02:29.995Z,3.26
2023-12-14T14:05:33.256Z,3.29
2023-12-14T14:08:36.660Z,3.28
2023-12-14T14:11:42.598Z,3.23
2023-12-14T14:14:45.968Z,3.19
2023-12-14T14:17:53.903Z,3.13
2023-12-14T14:20:56.872Z,3.08
2023-12-14T14:23:59.898Z,3.06
2023-12-14T14:27:02.837Z,3.07
2023-12-14T14:30:06.161Z,3.09
2023-12-14T14:33:09.245Z,3.11
2023-12-14T14:36:12.236Z,3.05
2023-12-14T14:39:16.396Z,3.04
2023-12-14T14:42:21.236Z,3.05
2023-12-14T14:45:24.245Z,3.06
2023-12-14T14:48:27.128Z,3.06
2023-12-14T14:51:31.191Z,3.09
2023-12-14T14:54:34.135Z,3.13
2023-12-14T14:57:36.918Z,3.17
2023-12-14T15:00:42.629Z,3.19
2023-12-14T15:03:45.585Z,3.21
2023-12-14T15:06:49.501Z,3.25
2023-12-14T15:09:52.340Z,3.28
2023-12-14T15:12:55.205Z,3.33
2023-12-14T15:15:58.100Z,3.37
2023-12-14T15:19:01.052Z,3.35
2023-12-14T15:22:03.953Z,3.29
2023-12-14T15:25:06.973Z,3.26
2023-12-14T15:28:09.950Z,3.24
2023-12-14T15:31:12.961Z,3.25
2023-12-14T15:34:15.957Z,3.26
2023-12-14T15:37:18.956Z,3.23
2023-12-14T15:40:21.957Z,3.22
2023-12-14T15:43:24.906Z,3.19
2023-12-14T15:46:27.881Z,3.19
2023-12-14T15:49:30.761Z,3.22
2023-12-14T15:52:33.921Z,3.20
2023-12-14T15:55:37.588Z,3.19
2023-12-14T15:58:40.550Z,3.21
2023-12-14T16:01:46.464Z,3.23
2023-12-14T16:04:51.205Z,3.24
2023-12-14T16:07:54.251Z,3.23
2023-12-14T16:10:57.482Z,3.22
2023-12-14T16:14:00.462Z,3.17
2023-12-14T16:17:03.751Z,3.18
2023-12-14T16:20:07.669Z,3.18
2023-12-14T16:23:11.426Z,3.20
2023-12-14T16:26:14.712Z,3.23
2023-12-14T16:29:17.766Z,3.28
2023-12-14T16:32:20.974Z,3.32
2023-12-14T16:35:24.096Z,3.35
2023-12-14T16:38:27.082Z,3.36
2023-12-14T16:41:30.273Z,3.42
2023-12-14T16:44:33.757Z,3.46
2023-12-14T16:47:36.547Z,3.47
2023-12-14T16:50:39.852Z,3.46
2023-12-14T16:53:43.652Z,3.44
2023-12-14T16:56:47.531Z,3.41
2023-12-14T16:59:50.393Z,3.33
2023-12-14T17:02:53.362Z,3.31
2023-12-14T17:05:56.459Z,3.26
2023-12-14T17:08:59.606Z,3.22
2023-12-14T17:12:02.458Z,3.21
2023-12-14T17:15:06.700Z,3.23
2023-12-14T17:18:10.173Z,3.24
2023-12-14T17:21:23.197Z,3.25
2023-12-14T17:24:26.057Z,3.24
2023-12-14T17:27:30.188Z,3.23
2023-12-14T17:30:33.855Z,3.22
2023-12-14T17:33:37.880Z,3.23
2023-12-14T17:36:40.976Z,3.21
2023-12-14T17:39:45.296Z,3.18
2023-12-14T17:42:48.198Z,3.16
2023-12-14T17:45:51.182Z,3.11
2023-12-14T17:48:54.309Z,3.07
2023-12-14T17:51:57.169Z,3.06
2023-12-14T17:55:02.001Z,3.06
2023-12-14T17:58:06.330Z,3.07
2023-12-14T18:01:09.229Z,3.06
2023-12-14T18:04:12.302Z,3.08
2023-12-14T18:07:15.586Z,3.10
2023-12-14T18:10:18.642Z,3.13
2023-12-14T18:13:21.502Z,3.16
2023-12-14T18:16:28.004Z,3.16
2023-12-14T18:19:31.320Z,3.12
2023-12-14T18:22:34.383Z,3.09
2023-12-14T18:25:37.712Z,3.08
2023-12-14T18:28:46.431Z,3.06
2023-12-14T18:31:49.395Z,3.04
2023-12-14T18:34:52.411Z,3.06
2023-12-14T18:37:55.478Z,3.09
2023-12-14T18:40:58.190Z,3.12
2023-12-14T18:44:01.134Z,3.15
2023-12-14T18:47:04.463Z,3.15
2023-12-14T18:50:07.894Z,3.15
2023-12-14T18:53:11.293Z,3.14
2023-12-14T18:56:14.154Z,3.15
2023-12-14T18:59:17.262Z,3.13
2023-12-14T19:02:26.301Z,3.09
2023-12-14T19:05:29.501Z,3.07
2023-12-14T19:08:32.657Z,3.01
2023-12-14T19:11:35.640Z,3.00
2023-12-14T19:14:38.444Z,2.96
2023-12-14T19:17:42.021Z,2.92
2023-12-14T19:20:46.347Z,2.91
2023-12-14T19:23:49.328Z,2.91
2023-12-14T19:26:55.268Z,2.90
2023-12-14T19:29:58.737Z,2.90
2023-12-14T19:33:01.689Z,2.91
2023-12-14T19:36:12.875Z,2.94
2023-12-14T19:39:15.844Z,2.95
2023-12-14T19:42:18.683Z,2.91
2023-12-14T19:45:21.687Z,2.89
2023-12-14T19:48:26.024Z,2.83
2023-12-14T19:51:30.704Z,2.75
2023-12-14T19:54:33.584Z,2.68
2023-12-14T19:57:37.292Z,2.57
2023-12-14T20:00:40.460Z,2.51
2023-12-14T20:03:43.444Z,2.51
2023-12-14T20:06:46.401Z,2.51
2023-12-14T20:09:57.816Z,2.53
2023-12-14T20:13:10.534Z,2.51
2023-12-14T20:16:18.635Z,2.50
2023-12-14T20:19:21.607Z,2.43
2023-12-14T20:22:25.516Z,2.41
2023-12-14T20:25:28.591Z,2.41
2023-12-14T20:28:31.855Z,2.39
2023-12-14T20:31:36.356Z,2.37
2023-12-14T20:34:39.637Z,2.32
2023-12-14T20:37:42.459Z,2.28
2023-12-14T20:40:45.396Z,2.24
2023-12-14T20:43:48.396Z,2.20
2023-12-14T20:46:51.390Z,2.15
2023-12-14T20:49:54.417Z,2.16
2023-12-14T20:52:57.407Z,2.19
2023-12-14T20:56:00.775Z,2.22
2023-12-14T20:59:03.678Z,2.24
2023-12-14T21:02:08.041Z,2.26
2023-12-14T21:05:11.135Z,2.32
2023-12-14T21:08:14.136Z,2.32
2023-12-14T21:11:17.693Z,2.30
2023-12-14T21:14:21.924Z,2.29
2023-12-14T21:17:24.861Z,2.28
2023-12-14T21:20:30.315Z,2.26
2023-12-14T21:23:33.813Z,2.23
2023-12-14T21:26:38.466Z,2.20
2023-12-14T21:29:42.044Z,2.16
2023-12-14T21:32:45.511Z,2.13
2023-12-14T21:35:48.593Z,2.15
2023-12-14T21:38:51.483Z,2.13
2023-12-14T21:41:54.441Z,2.13
2023-12-14T21:44:57.313Z,2.14
2023-12-14T21:48:00.364Z,2.19
2023-12-14T21:51:03.665Z,2.24
2023-12-14T21:54:06.535Z,2.29
2023-12-14T21:57:09.412Z,2.33
2023-12-14T22:00:12.700Z,2.36
2023-12-14T22:03:15.579Z,2.33
2023-12-14T22:06:18.608Z,2.27
2023-12-14T22:09:21.804Z,2.19
2023-12-14T22:12:24.915Z,2.04
2023-12-14T22:15:28.157Z,2.01
2023-12-14T22:18:31.247Z,1.96
2023-12-14T22:21:34.316Z,1.91
2023-12-14T22:24:37.279Z,1.90
2023-12-14T22:27:40.257Z,1.90
2023-12-14T22:30:43.370Z,1.93
2023-12-14T22:33:46.468Z,1.99
2023-12-14T22:36:50.315Z,2.05
2023-12-14T22:39:53.679Z,2.09
2023-12-14T22:42:56.648Z,2.09
2023-12-14T22:45:59.522Z,2.15
2023-12-14T22:49:02.555Z,2.15
2023-12-14T22:52:05.996Z,2.10
2023-12-14T22:55:13.346Z,2.12
2023-12-14T22:58:16.218Z,2.13
2023-12-14T23:01:35.980Z,2.10
2023-12-14T23:04:40.587Z,2.08
2023-12-14T23:07:43.507Z,2.12
2023-12-14T23:10:46.545Z,2.09
2023-12-14T23:13:49.894Z,2.09
2023-12-14T23:16:52.954Z,2.10
2023-12-14T23:19:55.873Z,2.14
2023-12-14T23:22:58.855Z,2.20
2023-12-14T23:26:01.710Z,2.20
2023-12-14T23:29:04.916Z,2.21
2023-12-14T23:32:08.881Z,2.22
2023-12-14T23:35:11.984Z,2.16
2023-12-14T23:38:15.189Z,2.13
2023-12-14T23:41:18.212Z,2.09
2023-12-14T23:44:21.413Z,2.04
2023-12-14T23:47:24.483Z,1.97
2023-12-14T23:50:27.472Z,1.93
2023-12-14T23:53:30.663Z,1.92
2023-12-14T23:56:33.778Z,1.94
2023-12-14T23:59:36.730Z,1.94
